Time;durP1;ratioP1;P1;durP2;ratioP2;P2;SDS_P1;SDS_P2;PMS_P1;PMS_P2;Temp;Humidity;BMP_temperature;BMP_pressure;BME280_temperature;BME280_humidity;BME280_pressure;Samples;Min_cycle;Max_cycle;Signal;HPM_P1;HPM_P2
2021/01/21 00:01:07;;;;;;;3.85;1.90;;;7.90;88.80;;;;;;5059696;28;20033;-81
2021/01/21 00:03:33;;;;;;;4.43;1.90;;;7.90;88.30;;;;;;5055726;28;20602;-80
2021/01/21 00:06:00;;;;;;;2.40;1.70;;;7.90;88.50;;;;;;5049175;28;20029;-81
2021/01/21 00:08:26;;;;;;;2.60;1.60;;;7.90;87.30;;;;;;5050721;28;20040;-81
2021/01/21 00:10:51;;;;;;;3.90;2.10;;;8.00;87.30;;;;;;5055842;28;20037;-81
2021/01/21 00:13:17;;;;;;;2.28;1.50;;;8.00;86.90;;;;;;5056337;28;20032;-81
2021/01/21 00:15:42;;;;;;;2.80;1.83;;;8.10;86.70;;;;;;5055021;28;20518;-82
2021/01/21 00:18:08;;;;;;;4.90;1.63;;;8.10;85.90;;;;;;5052207;28;20017;-80
2021/01/21 00:20:34;;;;;;;3.03;1.70;;;8.20;85.70;;;;;;5051977;28;20143;-80
2021/01/21 00:22:59;;;;;;;2.40;1.60;;;8.10;85.70;;;;;;5060610;28;20035;-81
2021/01/21 00:25:25;;;;;;;5.35;1.50;;;8.10;85.60;;;;;;5060127;28;20033;-81
2021/01/21 00:27:51;;;;;;;3.90;1.80;;;8.10;86.90;;;;;;5048098;28;20384;-81
2021/01/21 00:30:16;;;;;;;3.88;1.98;;;8.00;86.20;;;;;;5059380;28;20033;-80
2021/01/21 00:32:42;;;;;;;3.75;1.85;;;7.90;86.40;;;;;;5059991;28;21557;-81
2021/01/21 00:35:08;;;;;;;3.72;1.70;;;7.80;86.70;;;;;;5049492;28;20032;-81
2021/01/21 00:37:33;;;;;;;2.95;1.98;;;7.80;87.00;;;;;;5061454;28;20372;-81
2021/01/21 00:39:59;;;;;;;3.63;2.13;;;7.70;87.70;;;;;;5048858;28;20032;-81
2021/01/21 00:42:24;;;;;;;2.70;2.03;;;7.60;88.30;;;;;;5052365;28;20029;-81
2021/01/21 00:44:50;;;;;;;3.25;1.83;;;7.60;88.50;;;;;;5065196;28;20154;-81
2021/01/21 00:47:15;;;;;;;2.92;1.92;;;7.40;88.60;;;;;;5053517;28;20086;-81
2021/01/21 00:49:41;;;;;;;4.50;1.90;;;7.40;88.60;;;;;;5060581;28;20024;-81
2021/01/21 00:52:07;;;;;;;6.28;2.15;;;7.40;88.40;;;;;;5059762;28;20079;-81
2021/01/21 00:54:32;;;;;;;3.53;1.90;;;7.30;88.40;;;;;;5054277;28;20021;-81
2021/01/21 00:56:57;;;;;;;2.90;2.15;;;7.30;88.40;;;;;;5063595;28;20028;-81
2021/01/21 00:59:23;;;;;;;2.63;1.70;;;7.30;88.60;;;;;;5053644;28;20017;-81
2021/01/21 01:01:49;;;;;;;2.70;1.70;;;7.30;88.10;;;;;;5054595;28;20480;-81
2021/01/21 01:04:14;;;;;;;5.32;1.70;;;7.30;88.30;;;;;;5062261;28;20017;-82
2021/01/21 01:06:40;;;;;;;2.67;2.10;;;7.20;88.00;;;;;;5060249;28;20553;-81
2021/01/21 01:09:05;;;;;;;4.15;1.60;;;7.30;87.80;;;;;;5061787;28;20028;-81
2021/01/21 01:11:31;;;;;;;2.83;1.63;;;7.30;87.30;;;;;;5061803;28;20032;-81
2021/01/21 01:13:56;;;;;;;4.18;1.67;;;7.30;87.40;;;;;;5061623;28;20032;-81
2021/01/21 01:16:22;;;;;;;3.15;1.80;;;7.30;88.10;;;;;;5054731;28;20064;-81
2021/01/21 01:18:47;;;;;;;2.22;1.40;;;7.30;87.10;;;;;;5052598;28;20150;-81
2021/01/21 01:21:13;;;;;;;3.17;1.83;;;7.40;86.60;;;;;;5055994;28;20021;-81
2021/01/21 01:23:38;;;;;;;2.08;1.60;;;7.40;86.60;;;;;;5067398;28;20499;-81
2021/01/21 01:26:04;;;;;;;3.20;1.75;;;7.40;86.30;;;;;;5068456;28;20032;-81
2021/01/21 01:28:29;;;;;;;2.38;1.60;;;7.40;85.60;;;;;;5060739;28;20017;-82
2021/01/21 01:30:55;;;;;;;2.63;1.65;;;7.40;85.70;;;;;;5060308;28;20418;-81
2021/01/21 01:33:20;;;;;;;3.17;1.63;;;7.40;84.90;;;;;;5053323;28;20028;-81
2021/01/21 01:35:46;;;;;;;2.70;1.60;;;7.50;85.40;;;;;;5058312;28;20020;-81
2021/01/21 01:38:13;;;;;;;2.58;1.70;;;7.40;84.30;;;;;;5055639;28;20475;-81
2021/01/21 01:40:39;;;;;;;2.95;1.80;;;7.50;84.40;;;;;;5053249;28;20495;-81
2021/01/21 01:43:04;;;;;;;3.03;1.60;;;7.50;84.40;;;;;;5060363;28;20063;-81
2021/01/21 01:45:30;;;;;;;2.75;1.80;;;7.50;83.90;;;;;;5060942;28;20044;-82
2021/01/21 01:47:55;;;;;;;2.80;1.80;;;7.50;83.70;;;;;;5066706;28;20035;-82
2021/01/21 01:50:23;;;;;;;1.85;1.48;;;7.50;83.20;;;;;;5055158;28;20083;-82
2021/01/21 01:52:52;;;;;;;2.92;1.65;;;7.50;82.80;;;;;;5053819;28;20035;-81
2021/01/21 01:55:18;;;;;;;2.60;1.90;;;7.50;82.60;;;;;;5058137;28;20032;-81
2021/01/21 01:57:48;;;;;;;3.38;1.77;;;7.50;82.80;;;;;;5062964;28;20033;-81
2021/01/21 02:00:13;;;;;;;1.90;1.60;;;7.50;82.60;;;;;;5061142;28;20532;-81
2021/01/21 02:02:39;;;;;;;2.33;1.60;;;7.50;82.20;;;;;;5063506;28;20041;-81
2021/01/21 02:05:06;;;;;;;2.78;1.60;;;7.50;82.40;;;;;;5070076;28;20074;-82
2021/01/21 02:07:31;;;;;;;3.45;1.52;;;7.50;82.20;;;;;;5055328;28;20090;-82
2021/01/21 02:10:00;;;;;;;2.13;1.67;;;7.50;82.20;;;;;;5066880;28;20727;-82
2021/01/21 02:12:33;;;;;;;4.75;1.80;;;7.50;82.30;;;;;;5060478;28;20035;-81
2021/01/21 02:15:11;;;;;;;2.20;1.45;;;7.40;82.00;;;;;;5058268;28;20020;-82
2021/01/21 02:17:48;;;;;;;1.48;1.38;;;7.50;81.90;;;;;;5060565;28;20028;-81
2021/01/21 02:20:35;;;;;;;2.55;1.52;;;7.40;81.90;;;;;;5049938;28;20407;-81
2021/01/21 02:23:31;;;;;;;2.58;1.60;;;7.50;81.00;;;;;;5061855;28;20399;-81
2021/01/21 02:26:05;;;;;;;1.65;1.35;;;7.50;81.00;;;;;;5052154;28;20115;-81
2021/01/21 02:29:00;;;;;;;1.23;1.10;;;7.50;80.70;;;;;;5054075;28;20037;-81
2021/01/21 02:31:38;;;;;;;3.92;1.60;;;7.60;80.40;;;;;;5061434;28;20049;-81
2021/01/21 02:34:10;;;;;;;2.35;1.52;;;7.60;81.00;;;;;;5053093;28;20113;-81
2021/01/21 02:36:50;;;;;;;2.63;1.58;;;7.70;80.50;;;;;;5059932;28;20021;-81
2021/01/21 02:39:19;;;;;;;3.03;1.42;;;7.70;80.30;;;;;;5058566;28;20099;-82
2021/01/21 02:41:44;;;;;;;2.08;1.40;;;7.70;80.30;;;;;;5063507;28;20028;-82
2021/01/21 02:44:10;;;;;;;1.60;1.38;;;7.70;81.50;;;;;;5064275;28;20016;-81
2021/01/21 02:46:35;;;;;;;2.30;1.38;;;7.70;80.20;;;;;;5064217;28;20052;-81
2021/01/21 02:49:01;;;;;;;1.65;1.30;;;7.80;80.30;;;;;;5056995;28;20112;-81
2021/01/21 02:51:52;;;;;;;3.10;1.38;;;7.80;80.40;;;;;;5051111;28;20115;-81
2021/01/21 02:54:57;;;;;;;2.80;1.70;;;7.80;80.20;;;;;;5056474;28;20605;-81
2021/01/21 02:57:29;;;;;;;3.38;1.50;;;7.90;79.90;;;;;;5059792;28;20120;-81
2021/01/21 02:59:56;;;;;;;2.85;1.45;;;7.90;79.70;;;;;;5066730;28;20433;-81
2021/01/21 03:02:26;;;;;;;2.35;1.30;;;7.90;80.20;;;;;;5061102;28;20105;-82
2021/01/21 03:04:58;;;;;;;3.30;1.45;;;7.80;80.00;;;;;;5065025;28;20025;-82
2021/01/21 03:07:25;;;;;;;3.13;1.58;;;7.90;79.90;;;;;;5056635;28;20567;-81
2021/01/21 03:09:50;;;;;;;3.53;1.50;;;7.90;79.80;;;;;;5054847;28;20108;-81
2021/01/21 03:12:20;;;;;;;2.00;1.25;;;7.80;79.60;;;;;;5049869;28;20159;-81
2021/01/21 03:14:46;;;;;;;2.10;1.38;;;7.80;79.70;;;;;;5050662;28;20505;-81
2021/01/21 03:17:12;;;;;;;1.73;1.20;;;7.80;79.60;;;;;;5060334;28;20032;-81
2021/01/21 03:19:37;;;;;;;2.55;1.55;;;7.90;79.50;;;;;;5050333;28;20479;-81
2021/01/21 03:22:03;;;;;;;5.18;1.35;;;7.90;79.00;;;;;;5056204;28;20104;-81
2021/01/21 03:24:28;;;;;;;2.20;1.40;;;7.90;81.00;;;;;;5050716;28;20080;-80
2021/01/21 03:26:54;;;;;;;2.17;1.20;;;7.90;79.10;;;;;;5057684;28;20033;-81
2021/01/21 03:29:20;;;;;;;2.92;1.38;;;7.90;78.50;;;;;;5064456;28;20093;-81
2021/01/21 03:31:45;;;;;;;4.22;1.20;;;7.90;78.60;;;;;;5050248;28;20052;-80
2021/01/21 03:34:11;;;;;;;2.25;1.27;;;7.90;78.40;;;;;;5052001;28;20123;-80
2021/01/21 03:36:36;;;;;;;1.60;1.20;;;7.90;78.40;;;;;;5056863;28;20734;-81
2021/01/21 03:39:02;;;;;;;2.15;1.33;;;7.90;78.60;;;;;;5050653;28;20029;-81
2021/01/21 03:41:28;;;;;;;1.85;1.23;;;7.90;78.20;;;;;;5048212;28;20082;-81
2021/01/21 03:43:53;;;;;;;1.60;1.15;;;8.00;78.60;;;;;;5057648;28;20669;-81
2021/01/21 03:46:19;;;;;;;1.55;1.35;;;8.00;78.60;;;;;;5066622;28;20044;-81
2021/01/21 03:48:44;;;;;;;2.55;1.40;;;7.90;78.00;;;;;;5057271;28;20035;-80
2021/01/21 03:51:10;;;;;;;2.85;1.55;;;8.00;77.80;;;;;;5050664;28;20064;-81
2021/01/21 03:53:35;;;;;;;1.45;1.23;;;8.00;77.40;;;;;;5053685;28;20016;-81
2021/01/21 03:56:01;;;;;;;2.30;1.30;;;8.00;77.60;;;;;;5067047;28;20082;-81
2021/01/21 03:58:26;;;;;;;1.70;1.10;;;8.00;78.30;;;;;;5063627;28;20033;-81
2021/01/21 04:00:51;;;;;;;1.25;1.02;;;8.00;77.70;;;;;;5065351;28;20037;-81
2021/01/21 04:03:17;;;;;;;1.35;1.08;;;8.00;77.50;;;;;;5054903;28;20033;-81
2021/01/21 04:05:42;;;;;;;1.85;1.20;;;8.00;77.80;;;;;;5051004;28;20082;-81
2021/01/21 04:08:08;;;;;;;2.92;1.15;;;8.00;78.40;;;;;;5054226;28;20037;-81
2021/01/21 04:10:33;;;;;;;2.40;1.20;;;8.00;78.20;;;;;;5066487;28;20031;-82
2021/01/21 04:12:59;;;;;;;1.88;1.20;;;8.00;78.20;;;;;;5047259;28;20484;-81
2021/01/21 04:15:24;;;;;;;1.10;1.00;;;7.90;78.00;;;;;;5062825;28;20021;-81
2021/01/21 04:17:50;;;;;;;2.45;1.30;;;7.90;78.50;;;;;;5052515;28;20041;-82
2021/01/21 04:20:15;;;;;;;1.77;1.10;;;8.00;78.30;;;;;;5060880;28;20082;-82
2021/01/21 04:22:41;;;;;;;2.22;1.25;;;8.00;78.00;;;;;;5057914;28;20037;-82
2021/01/21 04:25:07;;;;;;;1.90;1.10;;;8.00;77.90;;;;;;5049720;28;20380;-81
2021/01/21 04:27:32;;;;;;;2.65;1.10;;;8.00;78.00;;;;;;5055686;28;20033;-82
2021/01/21 04:29:58;;;;;;;1.15;0.90;;;8.00;77.80;;;;;;5051093;28;20087;-81
2021/01/21 04:32:23;;;;;;;1.35;1.10;;;8.00;78.50;;;;;;5055136;28;20045;-82
2021/01/21 04:34:49;;;;;;;0.98;0.90;;;8.00;78.00;;;;;;5058981;28;20483;-81
2021/01/21 04:37:14;;;;;;;1.42;1.20;;;8.10;78.30;;;;;;5054772;28;20045;-81
2021/01/21 04:39:40;;;;;;;2.53;1.17;;;8.10;77.70;;;;;;5054233;28;20079;-81
2021/01/21 04:42:06;;;;;;;1.42;1.00;;;8.10;77.70;;;;;;5058234;28;20036;-81
2021/01/21 04:44:31;;;;;;;1.85;1.17;;;8.10;77.90;;;;;;5061592;28;20372;-81
2021/01/21 04:46:59;;;;;;;2.83;1.33;;;8.00;77.50;;;;;;5063671;28;20045;-82
2021/01/21 04:49:28;;;;;;;3.17;1.55;;;8.10;77.40;;;;;;5068273;28;20029;-82
2021/01/21 04:51:57;;;;;;;1.33;1.23;;;8.00;77.30;;;;;;5069477;28;20035;-81
2021/01/21 04:54:29;;;;;;;1.92;1.35;;;8.00;77.40;;;;;;5064724;28;20024;-81
2021/01/21 04:56:59;;;;;;;4.03;1.33;;;8.00;77.20;;;;;;5061847;28;20422;-81
2021/01/21 04:59:28;;;;;;;1.90;1.23;;;8.00;77.30;;;;;;5058865;28;20021;-82
2021/01/21 05:01:54;;;;;;;2.65;1.35;;;8.00;77.40;;;;;;5053935;28;20025;-82
2021/01/21 05:04:20;;;;;;;2.10;1.30;;;8.00;77.90;;;;;;5056285;28;20064;-82
2021/01/21 05:06:45;;;;;;;2.33;1.65;;;8.00;77.60;;;;;;5064670;28;20101;-81
2021/01/21 05:09:11;;;;;;;2.00;1.30;;;8.00;77.90;;;;;;5061156;28;20124;-82
2021/01/21 05:11:37;;;;;;;2.40;1.15;;;8.00;77.50;;;;;;5053497;28;20032;-82
2021/01/21 05:14:02;;;;;;;1.83;1.08;;;8.00;78.00;;;;;;5061434;28;20029;-82
2021/01/21 05:16:28;;;;;;;2.03;1.30;;;8.00;78.10;;;;;;5062509;28;20017;-82
2021/01/21 05:18:54;;;;;;;2.03;1.15;;;8.00;77.70;;;;;;5066613;28;20044;-82
2021/01/21 05:21:21;;;;;;;2.97;1.30;;;8.00;78.10;;;;;;5051197;28;20484;-81
2021/01/21 05:23:47;;;;;;;2.53;1.17;;;7.90;77.80;;;;;;5054679;28;20035;-82
2021/01/21 05:26:12;;;;;;;1.70;1.23;;;8.00;78.70;;;;;;5056907;28;20028;-82
2021/01/21 05:28:39;;;;;;;3.63;1.35;;;8.00;78.20;;;;;;5052957;28;20055;-82
2021/01/21 05:31:04;;;;;;;4.57;1.70;;;8.00;78.60;;;;;;5060991;28;20068;-82
2021/01/21 05:33:30;;;;;;;3.40;1.52;;;8.00;78.30;;;;;;5053565;28;20049;-82
2021/01/21 05:35:57;;;;;;;3.40;1.70;;;8.00;78.60;;;;;;5053812;28;20543;-81
2021/01/21 05:38:22;;;;;;;3.53;1.70;;;7.90;78.70;;;;;;5062215;28;20035;-82
2021/01/21 05:40:48;;;;;;;3.03;1.52;;;7.90;78.40;;;;;;5054520;28;20475;-82
2021/01/21 05:43:14;;;;;;;3.63;1.80;;;7.90;78.90;;;;;;5063204;28;20025;-82
2021/01/21 05:45:43;;;;;;;3.25;1.80;;;8.00;78.90;;;;;;5062181;28;20045;-81
2021/01/21 05:48:11;;;;;;;3.08;1.60;;;8.00;78.50;;;;;;5061124;28;20032;-84
2021/01/21 05:50:36;;;;;;;2.28;1.33;;;8.00;77.90;;;;;;5057356;28;20064;-81
2021/01/21 05:53:06;;;;;;;4.32;1.88;;;8.00;78.10;;;;;;5053689;28;20057;-80
2021/01/21 05:55:32;;;;;;;5.38;1.80;;;8.00;78.10;;;;;;5056293;28;20421;-81
2021/01/21 05:57:57;;;;;;;4.60;1.90;;;8.00;78.30;;;;;;5052859;28;20116;-81
2021/01/21 06:00:26;;;;;;;4.82;1.73;;;8.00;78.90;;;;;;5055193;28;20041;-81
2021/01/21 06:02:53;;;;;;;5.90;1.88;;;8.00;78.50;;;;;;5061834;28;20094;-81
2021/01/21 06:05:20;;;;;;;5.18;1.92;;;8.00;78.80;;;;;;5054112;28;20544;-81
2021/01/21 06:07:47;;;;;;;4.03;2.13;;;8.00;78.70;;;;;;5055847;28;20036;-81
2021/01/21 06:10:17;;;;;;;3.55;2.05;;;7.90;78.50;;;;;;5053081;28;20032;-81
2021/01/21 06:12:53;;;;;;;5.65;2.10;;;8.00;78.60;;;;;;5056077;28;20532;-81
2021/01/21 06:15:19;;;;;;;2.72;1.92;;;8.00;78.60;;;;;;5054738;28;20103;-82
2021/01/21 06:17:47;;;;;;;4.05;1.80;;;8.00;79.20;;;;;;5053166;28;20438;-82
2021/01/21 06:20:13;;;;;;;3.25;1.70;;;8.00;78.80;;;;;;5054216;28;20514;-80
2021/01/21 06:22:42;;;;;;;4.82;2.22;;;7.90;78.80;;;;;;5053785;28;20043;-82
2021/01/21 06:25:12;;;;;;;7.22;2.28;;;8.00;78.70;;;;;;5061972;28;20040;-81
2021/01/21 06:27:40;;;;;;;4.82;2.47;;;7.90;78.90;;;;;;5060285;28;20029;-82
2021/01/21 06:30:13;;;;;;;5.53;2.22;;;7.90;78.70;;;;;;5058936;28;20028;-82
2021/01/21 06:32:47;;;;;;;3.67;2.03;;;8.00;78.60;;;;;;5051737;28;20077;-82
2021/01/21 06:35:18;;;;;;;6.45;2.08;;;8.00;78.80;;;;;;5051802;28;20086;-82
2021/01/21 06:37:50;;;;;;;4.18;2.33;;;8.00;78.30;;;;;;5052418;28;20025;-82
2021/01/21 06:40:17;;;;;;;5.97;2.45;;;8.10;77.60;;;;;;5054946;28;20031;-82
2021/01/21 06:42:52;;;;;;;3.65;2.03;;;8.10;77.60;;;;;;5062285;28;20043;-81
2021/01/21 06:45:17;;;;;;;3.65;2.17;;;8.10;78.00;;;;;;5057371;28;20052;-82
2021/01/21 06:47:43;;;;;;;3.00;2.05;;;8.10;77.10;;;;;;5059208;28;20037;-81
2021/01/21 06:50:09;;;;;;;3.50;2.35;;;8.10;76.80;;;;;;5056187;28;20411;-81
2021/01/21 06:52:37;;;;;;;4.50;2.17;;;8.20;76.70;;;;;;5049432;28;20031;-82
2021/01/21 06:55:04;;;;;;;3.22;2.00;;;8.30;76.50;;;;;;5055388;28;20032;-81
2021/01/21 06:57:35;;;;;;;3.50;1.90;;;8.30;76.20;;;;;;5050286;28;20021;-81
2021/01/21 07:00:03;;;;;;;;;;;8.30;75.80;;;;;;5051942;28;20025;-80
2021/01/21 07:02:50;;;;;;;5.38;2.35;;;8.30;75.60;;;;;;5056263;28;19908;-90
2021/01/21 07:05:21;;;;;;;4.50;2.00;;;8.40;75.80;;;;;;5053394;28;20054;-89
2021/01/21 07:07:52;;;;;;;5.10;2.30;;;8.40;75.00;;;;;;5052805;28;20056;-82
2021/01/21 07:10:38;;;;;;;4.75;2.03;;;8.50;75.10;;;;;;5054394;28;20388;-83
2021/01/21 07:13:19;;;;;;;2.88;1.85;;;8.50;75.20;;;;;;5061897;28;20506;-82
2021/01/21 07:15:48;;;;;;;4.03;1.90;;;8.50;75.10;;;;;;5063193;28;20028;-78
2021/01/21 07:18:22;;;;;;;3.38;2.00;;;8.60;74.40;;;;;;5067295;28;20135;-78
2021/01/21 07:21:00;;;;;;;5.32;2.08;;;8.50;74.30;;;;;;5064367;28;20041;-81
2021/01/21 07:23:42;;;;;;;2.85;1.63;;;8.60;74.30;;;;;;5065259;28;20029;-78
2021/01/21 07:26:34;;;;;;;3.67;1.92;;;8.60;73.90;;;;;;5065341;28;20036;-78
2021/01/21 07:29:21;;;;;;;2.83;1.80;;;8.70;73.80;;;;;;5067660;28;20082;-78
2021/01/21 07:31:59;;;;;;;3.38;1.60;;;8.70;73.90;;;;;;5059163;28;20040;-86
2021/01/21 07:34:39;;;;;;;3.25;1.80;;;8.70;73.60;;;;;;5064925;28;20024;-77
2021/01/21 07:37:22;;;;;;;3.13;1.70;;;8.80;74.20;;;;;;5067369;28;20479;-80
2021/01/21 07:40:07;;;;;;;4.55;1.80;;;8.80;73.20;;;;;;5066156;28;20027;-81
2021/01/21 07:42:38;;;;;;;3.70;1.73;;;8.80;73.20;;;;;;5062768;28;20033;-79
2021/01/21 07:45:14;;;;;;;4.65;1.75;;;8.90;73.70;;;;;;5062976;28;20044;-80
2021/01/21 07:47:41;;;;;;;2.75;1.60;;;8.80;73.40;;;;;;5064303;28;20028;-79
2021/01/21 07:50:19;;;;;;;3.15;1.77;;;8.90;73.30;;;;;;5064709;28;20471;-78
2021/01/21 07:52:52;;;;;;;3.83;1.65;;;8.90;73.00;;;;;;5064504;28;20028;-80
2021/01/21 07:55:28;;;;;;;3.20;1.77;;;9.10;75.00;;;;;;5065716;28;20048;-78
2021/01/21 07:58:13;;;;;;;3.08;1.55;;;9.10;72.60;;;;;;5065008;28;20027;-80
2021/01/21 08:00:38;;;;;;;4.50;2.05;;;9.10;72.70;;;;;;5062555;28;20054;-82
2021/01/21 08:03:03;;;;;;;5.18;1.52;;;9.30;73.50;;;;;;5060642;28;20534;-80
2021/01/21 08:05:29;;;;;;;2.72;1.58;;;9.20;72.00;;;;;;5065808;28;20032;-81
2021/01/21 08:07:56;;;;;;;2.50;1.50;;;9.20;72.00;;;;;;5061100;28;20024;-82
2021/01/21 08:10:26;;;;;;;2.47;1.60;;;9.30;72.00;;;;;;5060558;28;20028;-83
2021/01/21 08:12:53;;;;;;;5.43;2.63;;;9.30;72.00;;;;;;5061755;28;20024;-81
2021/01/21 08:15:20;;;;;;;3.40;1.27;;;9.30;72.10;;;;;;5062720;28;20024;-82
2021/01/21 08:17:47;;;;;;;1.77;1.23;;;9.40;71.80;;;;;;5051730;28;20052;-83
2021/01/21 08:20:13;;;;;;;2.25;1.33;;;9.40;71.90;;;;;;5055986;28;20021;-81
2021/01/21 08:22:59;;;;;;;2.95;1.55;;;9.40;71.80;;;;;;5059689;28;20035;-86
2021/01/21 08:25:55;;;;;;;3.30;1.42;;;9.40;72.00;;;;;;5060662;28;20291;-85
2021/01/21 08:28:23;;;;;;;2.80;1.75;;;9.50;71.80;;;;;;5051520;28;20036;-86
2021/01/21 08:30:49;;;;;;;2.92;1.60;;;9.50;71.80;;;;;;5049725;28;20721;-85
2021/01/21 08:33:22;;;;;;;2.85;1.50;;;9.60;71.40;;;;;;5050471;28;20036;-82
2021/01/21 08:35:51;;;;;;;3.50;1.55;;;9.60;71.40;;;;;;5054288;28;20056;-80
2021/01/21 08:38:23;;;;;;;3.33;1.52;;;9.60;71.50;;;;;;5049996;28;20013;-82
2021/01/21 08:40:50;;;;;;;2.58;1.42;;;9.70;71.20;;;;;;5050807;28;20051;-87
2021/01/21 08:43:17;;;;;;;3.30;1.67;;;9.80;71.00;;;;;;5053231;28;20040;-80
2021/01/21 08:45:42;;;;;;;4.05;1.50;;;9.80;71.20;;;;;;5058470;28;20049;-76
2021/01/21 08:48:08;;;;;;;2.35;1.63;;;9.80;71.00;;;;;;5056993;28;20025;-76
2021/01/21 08:50:39;;;;;;;5.10;1.48;;;9.70;71.20;;;;;;5048699;28;20155;-84
2021/01/21 08:53:08;;;;;;;1.97;1.47;;;9.70;71.50;;;;;;5058263;28;20071;-79
2021/01/21 08:55:42;;;;;;;2.35;1.60;;;9.70;71.50;;;;;;5065699;28;20479;-83
2021/01/21 08:58:10;;;;;;;3.58;1.45;;;9.70;71.80;;;;;;5071168;28;20028;-76
2021/01/21 09:00:36;;;;;;;2.80;1.52;;;9.70;71.60;;;;;;5072326;28;20036;-76
2021/01/21 09:03:02;;;;;;;2.17;1.63;;;9.80;71.50;;;;;;5071884;28;20032;-76
2021/01/21 09:05:28;;;;;;;2.33;1.50;;;9.80;71.60;;;;;;5072763;28;20039;-75
2021/01/21 09:08:09;;;;;;;2.78;1.33;;;9.90;71.20;;;;;;5072785;28;20040;-76
2021/01/21 09:10:41;;;;;;;3.35;1.67;;;9.90;70.80;;;;;;5072042;28;20021;-75
2021/01/21 09:13:07;;;;;;;4.20;1.42;;;10.00;70.70;;;;;;5072693;28;20041;-76
2021/01/21 09:15:52;;;;;;;2.08;1.55;;;10.10;70.30;;;;;;5065082;28;20479;-76
2021/01/21 09:18:18;;;;;;;2.40;1.30;;;10.20;70.00;;;;;;5070742;28;20032;-76
2021/01/21 09:20:44;;;;;;;2.72;1.45;;;10.30;69.90;;;;;;5071908;28;20038;-76
2021/01/21 09:23:21;;;;;;;3.63;1.58;;;10.30;69.80;;;;;;5073572;28;20135;-76
2021/01/21 09:25:50;;;;;;;5.95;1.92;;;10.40;69.10;;;;;;5070281;28;20036;-76
2021/01/21 09:28:16;;;;;;;6.28;1.63;;;10.40;69.10;;;;;;5072394;28;20114;-77
2021/01/21 09:30:42;;;;;;;3.28;1.50;;;10.40;69.00;;;;;;5075730;28;20127;-76
2021/01/21 09:33:09;;;;;;;1.80;1.33;;;10.60;68.60;;;;;;5076559;28;20580;-76
2021/01/21 09:35:34;;;;;;;8.07;1.75;;;10.70;68.70;;;;;;5076068;28;20025;-76
2021/01/21 09:38:00;;;;;;;2.58;1.52;;;10.80;67.60;;;;;;5075196;28;20026;-76
2021/01/21 09:40:28;;;;;;;4.30;1.48;;;10.90;68.10;;;;;;5076237;28;20378;-77
2021/01/21 09:42:56;;;;;;;1.92;1.42;;;11.00;67.20;;;;;;5075478;28;20516;-76
2021/01/21 09:45:22;;;;;;;4.72;1.80;;;11.10;66.00;;;;;;5076266;28;20044;-75
2021/01/21 09:47:51;;;;;;;3.20;1.45;;;11.30;66.50;;;;;;5073996;28;20044;-76
2021/01/21 09:50:19;;;;;;;6.80;1.30;;;11.30;65.60;;;;;;5074125;28;20033;-74
2021/01/21 09:52:45;;;;;;;2.83;1.40;;;11.40;65.40;;;;;;5074383;28;20032;-75
2021/01/21 09:55:11;;;;;;;3.92;1.50;;;11.50;64.90;;;;;;5072318;28;20036;-76
2021/01/21 09:57:39;;;;;;;2.88;1.40;;;11.60;65.00;;;;;;5075078;28;20424;-76
2021/01/21 10:00:06;;;;;;;2.80;1.55;;;11.90;64.30;;;;;;5074082;28;20036;-76
2021/01/21 10:02:32;;;;;;;2.97;1.55;;;12.00;64.70;;;;;;5075561;28;20052;-76
2021/01/21 10:04:57;;;;;;;1.52;1.30;;;12.10;62.80;;;;;;5075671;28;20425;-76
2021/01/21 10:07:22;;;;;;;4.53;1.50;;;12.20;63.00;;;;;;5073485;28;20029;-76
2021/01/21 10:09:48;;;;;;;1.65;1.27;;;12.20;63.20;;;;;;5074235;28;20201;-76
2021/01/21 10:12:13;;;;;;;4.05;1.60;;;12.30;62.60;;;;;;5073883;28;20029;-76
2021/01/21 10:14:39;;;;;;;2.22;1.23;;;12.20;62.80;;;;;;5075424;28;20406;-76
2021/01/21 10:17:07;;;;;;;4.25;1.35;;;12.00;63.00;;;;;;5072242;28;20047;-76
2021/01/21 10:19:33;;;;;;;3.00;1.40;;;11.80;63.30;;;;;;5072797;28;20028;-76
2021/01/21 10:21:59;;;;;;;3.60;1.45;;;11.80;64.40;;;;;;5075263;28;20497;-76
2021/01/21 10:24:24;;;;;;;2.17;1.67;;;11.90;64.20;;;;;;5075792;28;20040;-77
2021/01/21 10:26:50;;;;;;;1.65;1.05;;;12.10;64.30;;;;;;5075887;28;20032;-76
2021/01/21 10:29:16;;;;;;;1.98;1.25;;;12.30;63.90;;;;;;5073753;28;20277;-76
2021/01/21 10:31:42;;;;;;;5.53;1.40;;;12.40;63.70;;;;;;5071235;28;20060;-76
2021/01/21 10:34:08;;;;;;;1.85;1.10;;;12.40;62.20;;;;;;5073393;28;20110;-76
2021/01/21 10:36:38;;;;;;;2.65;1.40;;;12.50;62.00;;;;;;5069178;28;20036;-75
2021/01/21 10:39:04;;;;;;;1.50;1.30;;;12.50;62.20;;;;;;5073883;28;20025;-76
2021/01/21 10:41:30;;;;;;;2.58;1.52;;;12.60;61.60;;;;;;5073046;28;20495;-76
2021/01/21 10:43:56;;;;;;;1.73;1.10;;;12.60;61.90;;;;;;5075043;28;20048;-76
2021/01/21 10:46:22;;;;;;;2.25;1.25;;;12.60;61.30;;;;;;5073873;28;20135;-76
2021/01/21 10:48:47;;;;;;;3.22;1.20;;;12.70;61.10;;;;;;5075077;28;20497;-76
2021/01/21 10:51:13;;;;;;;2.47;1.00;;;12.80;60.80;;;;;;5075552;28;20042;-76
2021/01/21 10:53:39;;;;;;;1.58;1.20;;;12.90;61.20;;;;;;5073558;28;20072;-76
2021/01/21 10:56:05;;;;;;;1.42;1.10;;;13.10;59.70;;;;;;5074239;28;20390;-76
2021/01/21 10:58:31;;;;;;;2.45;1.10;;;13.20;59.50;;;;;;5074618;28;20036;-76
2021/01/21 11:00:57;;;;;;;1.90;1.25;;;13.40;59.40;;;;;;5072867;28;20028;-77
2021/01/21 11:03:22;;;;;;;1.58;1.00;;;13.50;59.20;;;;;;5072367;28;20495;-74
2021/01/21 11:05:48;;;;;;;4.10;1.10;;;13.60;58.60;;;;;;5072838;28;20024;-75
2021/01/21 11:08:13;;;;;;;2.53;1.30;;;13.70;58.70;;;;;;5071428;28;20417;-75
2021/01/21 11:10:40;;;;;;;3.97;1.15;;;13.70;58.20;;;;;;5072322;28;20037;-76
2021/01/21 11:13:07;;;;;;;3.10;1.20;;;13.90;58.80;;;;;;5070619;28;20036;-75
2021/01/21 11:15:32;;;;;;;5.65;1.23;;;14.30;57.90;;;;;;5070917;28;20032;-75
2021/01/21 11:17:59;;;;;;;1.48;1.17;;;14.50;57.00;;;;;;5070066;28;20635;-75
2021/01/21 11:20:25;;;;;;;0.90;0.90;;;14.50;56.80;;;;;;5073608;28;20122;-75
2021/01/21 11:22:51;;;;;;;2.67;1.10;;;14.50;56.80;;;;;;5074218;28;20060;-76
2021/01/21 11:25:16;;;;;;;3.45;1.10;;;14.30;57.00;;;;;;5071800;28;20660;-75
2021/01/21 11:27:42;;;;;;;2.20;1.40;;;14.10;57.70;;;;;;5073065;28;20037;-75
2021/01/21 11:30:12;;;;;;;4.05;1.00;;;13.90;57.90;;;;;;5071191;28;20158;-75
2021/01/21 11:32:38;;;;;;;2.67;1.13;;;13.60;58.50;;;;;;5074154;28;20044;-75
2021/01/21 11:35:06;;;;;;;1.23;1.10;;;13.50;59.30;;;;;;5072191;28;20056;-75
2021/01/21 11:37:31;;;;;;;5.10;1.02;;;13.30;59.50;;;;;;5075000;28;20038;-75
2021/01/21 11:39:57;;;;;;;2.50;1.00;;;13.20;59.90;;;;;;5071916;28;20028;-75
2021/01/21 11:42:22;;;;;;;1.73;1.15;;;13.20;60.50;;;;;;5073796;28;20422;-75
2021/01/21 11:44:48;;;;;;;0.82;0.73;;;13.10;60.30;;;;;;5072812;28;20037;-75
2021/01/21 11:47:14;;;;;;;2.28;1.20;;;13.10;60.00;;;;;;5073601;28;21174;-75
2021/01/21 11:49:40;;;;;;;1.98;1.00;;;13.10;60.20;;;;;;5073844;28;20086;-76
2021/01/21 11:52:06;;;;;;;2.45;1.20;;;13.10;60.60;;;;;;5072324;28;20044;-76
2021/01/21 11:54:31;;;;;;;3.42;1.02;;;13.10;61.10;;;;;;5073761;28;20108;-76
2021/01/21 11:56:57;;;;;;;1.23;1.00;;;13.10;60.80;;;;;;5071380;28;20021;-76
2021/01/21 11:59:22;;;;;;;1.27;0.90;;;13.10;61.10;;;;;;5073287;28;20049;-75
2021/01/21 12:01:48;;;;;;;1.27;0.98;;;13.10;61.20;;;;;;5072902;28;20054;-76
2021/01/21 12:04:13;;;;;;;2.33;1.08;;;13.10;61.60;;;;;;5071065;28;20029;-75
2021/01/21 12:06:39;;;;;;;1.08;0.90;;;13.10;62.00;;;;;;5073224;28;20552;-76
2021/01/21 12:09:05;;;;;;;2.50;1.00;;;13.00;61.70;;;;;;5074070;28;20395;-75
2021/01/21 12:11:32;;;;;;;3.97;1.00;;;13.10;62.50;;;;;;5073542;28;20029;-75
2021/01/21 12:13:57;;;;;;;1.70;1.10;;;13.00;62.40;;;;;;5072876;28;20033;-76
2021/01/21 12:16:23;;;;;;;4.32;1.40;;;13.00;62.40;;;;;;5074621;28;20380;-75
2021/01/21 12:18:49;;;;;;;1.02;0.82;;;13.00;63.00;;;;;;5073922;28;20086;-75
2021/01/21 12:21:14;;;;;;;4.18;0.95;;;13.00;62.80;;;;;;5071568;28;20029;-75
2021/01/21 12:23:40;;;;;;;3.55;1.25;;;13.00;62.70;;;;;;5072493;28;20020;-79
2021/01/21 12:26:08;;;;;;;1.65;1.33;;;13.00;63.80;;;;;;5071939;28;20047;-78
2021/01/21 12:28:34;;;;;;;3.65;0.90;;;13.00;63.20;;;;;;5071708;28;20036;-79
2021/01/21 12:31:01;;;;;;;2.10;0.95;;;13.00;63.30;;;;;;5070082;28;20404;-82
2021/01/21 12:33:44;;;;;;;1.63;0.93;;;13.00;63.50;;;;;;5072808;28;20497;-88
2021/01/21 12:36:09;;;;;;;1.80;0.80;;;13.00;63.30;;;;;;5070457;28;20033;-75
2021/01/21 12:38:35;;;;;;;3.60;1.02;;;13.00;63.50;;;;;;5067351;28;20016;-80
2021/01/21 12:41:00;;;;;;;1.55;1.10;;;13.00;63.60;;;;;;5070928;28;20041;-76
2021/01/21 12:43:26;;;;;;;1.75;1.15;;;13.00;64.20;;;;;;5069895;28;20036;-78
2021/01/21 12:45:51;;;;;;;1.33;0.90;;;13.00;64.20;;;;;;5073157;28;20063;-82
2021/01/21 12:48:18;;;;;;;1.48;1.13;;;13.00;64.60;;;;;;5068436;28;20048;-78
2021/01/21 12:50:43;;;;;;;1.33;0.90;;;13.00;64.90;;;;;;5073104;28;20680;-79
2021/01/21 12:53:09;;;;;;;3.97;0.93;;;12.90;64.80;;;;;;5071300;28;20148;-77
2021/01/21 12:55:34;;;;;;;1.52;1.10;;;12.90;64.90;;;;;;5070721;28;20029;-77
2021/01/21 12:58:00;;;;;;;3.95;1.00;;;12.90;65.50;;;;;;5071613;28;20107;-77
2021/01/21 13:00:26;;;;;;;1.10;0.75;;;12.90;65.60;;;;;;5073647;28;20016;-76